Terminal Aerodrome Forecast
Issued by NWS

Home | Current Version | Previous Version | Text Only | Print | Product List | Glossary On
Versions: 1 2 3 4 5 6 7 8 9 10 11 12 13 14 15 16 17 18 19 20 21 22 23 24 25 26 27 28 29 30 31 32 33 34 35
000
FTUS45 KSLC 022343
TAFEVW
TAF
KEVW 022343Z 0300/0324 21007KT P6SM VCSH SCT020 BKN040
     FM030300 27009KT 2SM -SHSN BR SCT012 BKN020
      TEMPO 0303/0305 1SM -SN BR OVC012
     FM030600 25010KT P6SM VCSH SCT020 BKN035
     FM031500 28015G24KT 3/4SM -SN BLSN VV004
     FM031800 29012G20KT 3SM -SHSN BR BKN015
     FM032000 29012G20KT P6SM VCSH BKN040=

USA.gov is the U.S. government's official web portal to all federal, state and local government web resources and services.